sensor_id;sensor_type;location;lat;lon;timestamp;P1;durP1;ratioP1;P2;durP2;ratioP2
4206;SDS011;2117;47.972;7.830;2023-04-24T00:01:13;2.37;;;0.70;;
4206;SDS011;2117;47.972;7.830;2023-04-24T00:03:39;3.43;;;0.90;;
4206;SDS011;2117;47.972;7.830;2023-04-24T00:06:05;2.60;;;0.80;;
4206;SDS011;2117;47.972;7.830;2023-04-24T00:08:33;1.33;;;0.80;;
4206;SDS011;2117;47.972;7.830;2023-04-24T00:10:59;1.80;;;0.70;;
4206;SDS011;2117;47.972;7.830;2023-04-24T00:13:25;1.10;;;0.60;;
4206;SDS011;2117;47.972;7.830;2023-04-24T00:15:51;1.73;;;1.00;;
4206;SDS011;2117;47.972;7.830;2023-04-24T00:18:16;1.27;;;0.77;;
4206;SDS011;2117;47.972;7.830;2023-04-24T00:20:42;1.63;;;0.90;;
4206;SDS011;2117;47.972;7.830;2023-04-24T00:23:08;4.70;;;1.00;;
4206;SDS011;2117;47.972;7.830;2023-04-24T00:25:34;3.23;;;0.70;;
4206;SDS011;2117;47.972;7.830;2023-04-24T00:28:00;1.40;;;0.60;;
4206;SDS011;2117;47.972;7.830;2023-04-24T00:30:25;1.17;;;0.70;;
4206;SDS011;2117;47.972;7.830;2023-04-24T00:32:51;1.30;;;0.63;;
4206;SDS011;2117;47.972;7.830;2023-04-24T00:35:17;1.83;;;0.70;;
4206;SDS011;2117;47.972;7.830;2023-04-24T00:37:44;1.70;;;0.80;;
4206;SDS011;2117;47.972;7.830;2023-04-24T00:40:10;1.30;;;0.80;;
4206;SDS011;2117;47.972;7.830;2023-04-24T00:42:36;1.20;;;0.70;;
4206;SDS011;2117;47.972;7.830;2023-04-24T00:45:02;1.47;;;0.80;;
4206;SDS011;2117;47.972;7.830;2023-04-24T00:47:28;1.00;;;0.57;;
4206;SDS011;2117;47.972;7.830;2023-04-24T00:49:55;2.43;;;1.00;;
4206;SDS011;2117;47.972;7.830;2023-04-24T00:52:20;3.53;;;0.83;;
4206;SDS011;2117;47.972;7.830;2023-04-24T00:54:49;1.30;;;0.60;;
4206;SDS011;2117;47.972;7.830;2023-04-24T00:57:15;2.00;;;0.60;;
4206;SDS011;2117;47.972;7.830;2023-04-24T00:59:41;2.43;;;0.70;;
4206;SDS011;2117;47.972;7.830;2023-04-24T01:02:07;1.40;;;0.60;;
4206;SDS011;2117;47.972;7.830;2023-04-24T01:04:35;1.33;;;0.70;;
4206;SDS011;2117;47.972;7.830;2023-04-24T01:07:01;3.90;;;0.90;;
4206;SDS011;2117;47.972;7.830;2023-04-24T01:09:27;1.00;;;0.60;;
4206;SDS011;2117;47.972;7.830;2023-04-24T01:11:53;1.60;;;1.43;;
4206;SDS011;2117;47.972;7.830;2023-04-24T01:14:19;1.83;;;0.83;;
4206;SDS011;2117;47.972;7.830;2023-04-24T01:16:45;3.93;;;0.80;;
4206;SDS011;2117;47.972;7.830;2023-04-24T01:19:11;3.73;;;0.80;;
4206;SDS011;2117;47.972;7.830;2023-04-24T01:21:37;1.37;;;0.70;;
4206;SDS011;2117;47.972;7.830;2023-04-24T01:24:04;2.27;;;0.70;;
4206;SDS011;2117;47.972;7.830;2023-04-24T01:26:30;2.70;;;0.70;;
4206;SDS011;2117;47.972;7.830;2023-04-24T01:28:56;1.40;;;0.60;;
4206;SDS011;2117;47.972;7.830;2023-04-24T01:31:22;1.50;;;0.70;;
4206;SDS011;2117;47.972;7.830;2023-04-24T01:33:48;2.07;;;0.70;;
4206;SDS011;2117;47.972;7.830;2023-04-24T01:36:15;1.27;;;0.70;;
4206;SDS011;2117;47.972;7.830;2023-04-24T01:38:41;1.20;;;0.70;;
4206;SDS011;2117;47.972;7.830;2023-04-24T01:41:07;2.50;;;0.80;;
4206;SDS011;2117;47.972;7.830;2023-04-24T01:43:33;1.77;;;0.70;;
4206;SDS011;2117;47.972;7.830;2023-04-24T01:45:58;2.70;;;1.00;;
4206;SDS011;2117;47.972;7.830;2023-04-24T01:48:24;2.90;;;0.77;;
4206;SDS011;2117;47.972;7.830;2023-04-24T01:50:49;2.63;;;0.80;;
4206;SDS011;2117;47.972;7.830;2023-04-24T01:53:15;2.90;;;1.10;;
4206;SDS011;2117;47.972;7.830;2023-04-24T01:55:41;1.70;;;0.83;;
4206;SDS011;2117;47.972;7.830;2023-04-24T01:58:06;1.73;;;0.70;;
4206;SDS011;2117;47.972;7.830;2023-04-24T02:00:32;1.97;;;0.90;;
4206;SDS011;2117;47.972;7.830;2023-04-24T02:02:57;1.33;;;0.80;;
4206;SDS011;2117;47.972;7.830;2023-04-24T02:05:23;3.47;;;1.10;;
4206;SDS011;2117;47.972;7.830;2023-04-24T02:07:49;1.97;;;0.90;;
4206;SDS011;2117;47.972;7.830;2023-04-24T02:10:14;1.20;;;0.60;;
4206;SDS011;2117;47.972;7.830;2023-04-24T02:12:40;2.77;;;0.90;;
4206;SDS011;2117;47.972;7.830;2023-04-24T02:15:05;1.90;;;0.70;;
4206;SDS011;2117;47.972;7.830;2023-04-24T02:17:31;1.53;;;0.80;;
4206;SDS011;2117;47.972;7.830;2023-04-24T02:19:57;3.33;;;0.87;;
4206;SDS011;2117;47.972;7.830;2023-04-24T02:22:22;1.50;;;0.90;;
4206;SDS011;2117;47.972;7.830;2023-04-24T02:24:48;2.07;;;0.87;;
4206;SDS011;2117;47.972;7.830;2023-04-24T02:27:14;6.00;;;0.90;;
4206;SDS011;2117;47.972;7.830;2023-04-24T02:29:39;2.23;;;0.90;;
4206;SDS011;2117;47.972;7.830;2023-04-24T02:32:05;4.50;;;1.07;;
4206;SDS011;2117;47.972;7.830;2023-04-24T02:34:31;4.83;;;1.40;;
4206;SDS011;2117;47.972;7.830;2023-04-24T02:36:56;4.43;;;2.43;;
4206;SDS011;2117;47.972;7.830;2023-04-24T02:39:22;5.83;;;0.97;;
4206;SDS011;2117;47.972;7.830;2023-04-24T02:41:48;4.67;;;1.00;;
4206;SDS011;2117;47.972;7.830;2023-04-24T02:44:13;2.33;;;1.77;;
4206;SDS011;2117;47.972;7.830;2023-04-24T02:46:39;2.23;;;0.80;;
4206;SDS011;2117;47.972;7.830;2023-04-24T02:49:06;2.50;;;1.10;;
4206;SDS011;2117;47.972;7.830;2023-04-24T02:51:31;2.83;;;1.20;;
4206;SDS011;2117;47.972;7.830;2023-04-24T02:53:57;1.60;;;0.83;;
4206;SDS011;2117;47.972;7.830;2023-04-24T02:56:22;1.57;;;0.77;;
4206;SDS011;2117;47.972;7.830;2023-04-24T02:58:48;1.53;;;0.73;;
4206;SDS011;2117;47.972;7.830;2023-04-24T03:01:13;2.07;;;0.83;;
4206;SDS011;2117;47.972;7.830;2023-04-24T03:03:39;2.00;;;0.90;;
4206;SDS011;2117;47.972;7.830;2023-04-24T03:06:05;1.20;;;0.70;;
4206;SDS011;2117;47.972;7.830;2023-04-24T03:08:34;1.93;;;0.90;;
4206;SDS011;2117;47.972;7.830;2023-04-24T03:11:00;6.33;;;0.80;;
4206;SDS011;2117;47.972;7.830;2023-04-24T03:13:25;6.70;;;1.57;;
4206;SDS011;2117;47.972;7.830;2023-04-24T03:15:51;5.37;;;0.93;;
4206;SDS011;2117;47.972;7.830;2023-04-24T03:18:17;3.83;;;0.90;;
4206;SDS011;2117;47.972;7.830;2023-04-24T03:20:45;6.80;;;1.00;;
4206;SDS011;2117;47.972;7.830;2023-04-24T03:23:11;2.13;;;0.80;;
4206;SDS011;2117;47.972;7.830;2023-04-24T03:25:36;3.40;;;0.80;;
4206;SDS011;2117;47.972;7.830;2023-04-24T03:28:02;4.27;;;0.70;;
4206;SDS011;2117;47.972;7.830;2023-04-24T03:30:28;1.90;;;0.80;;
4206;SDS011;2117;47.972;7.830;2023-04-24T03:32:53;2.93;;;1.03;;
4206;SDS011;2117;47.972;7.830;2023-04-24T03:35:19;2.17;;;1.10;;
4206;SDS011;2117;47.972;7.830;2023-04-24T03:37:46;2.23;;;0.70;;
4206;SDS011;2117;47.972;7.830;2023-04-24T03:40:11;1.73;;;0.87;;
4206;SDS011;2117;47.972;7.830;2023-04-24T03:42:37;1.77;;;0.70;;
4206;SDS011;2117;47.972;7.830;2023-04-24T03:45:02;2.30;;;1.03;;
4206;SDS011;2117;47.972;7.830;2023-04-24T03:47:28;4.37;;;0.67;;
4206;SDS011;2117;47.972;7.830;2023-04-24T03:49:54;2.43;;;0.80;;
4206;SDS011;2117;47.972;7.830;2023-04-24T03:52:20;1.93;;;1.00;;
4206;SDS011;2117;47.972;7.830;2023-04-24T03:54:46;3.50;;;1.67;;
4206;SDS011;2117;47.972;7.830;2023-04-24T03:57:11;1.67;;;0.83;;
4206;SDS011;2117;47.972;7.830;2023-04-24T03:59:37;7.37;;;1.30;;
4206;SDS011;2117;47.972;7.830;2023-04-24T04:02:02;1.93;;;0.83;;
4206;SDS011;2117;47.972;7.830;2023-04-24T04:04:28;5.93;;;1.30;;
4206;SDS011;2117;47.972;7.830;2023-04-24T04:06:53;4.10;;;0.90;;
4206;SDS011;2117;47.972;7.830;2023-04-24T04:09:19;1.90;;;1.00;;
4206;SDS011;2117;47.972;7.830;2023-04-24T04:11:45;2.37;;;0.80;;
4206;SDS011;2117;47.972;7.830;2023-04-24T04:14:10;1.30;;;0.80;;
4206;SDS011;2117;47.972;7.830;2023-04-24T04:16:36;1.80;;;1.20;;
4206;SDS011;2117;47.972;7.830;2023-04-24T04:19:01;1.67;;;0.97;;
4206;SDS011;2117;47.972;7.830;2023-04-24T04:21:28;2.53;;;1.30;;
4206;SDS011;2117;47.972;7.830;2023-04-24T04:23:54;1.63;;;0.90;;
4206;SDS011;2117;47.972;7.830;2023-04-24T04:26:19;2.80;;;1.20;;
4206;SDS011;2117;47.972;7.830;2023-04-24T04:28:46;4.73;;;1.67;;
4206;SDS011;2117;47.972;7.830;2023-04-24T04:31:12;2.93;;;1.23;;
4206;SDS011;2117;47.972;7.830;2023-04-24T04:33:38;1.97;;;1.40;;
4206;SDS011;2117;47.972;7.830;2023-04-24T04:36:04;1.97;;;1.10;;
4206;SDS011;2117;47.972;7.830;2023-04-24T04:38:30;2.80;;;1.37;;
4206;SDS011;2117;47.972;7.830;2023-04-24T04:40:55;3.90;;;1.13;;
4206;SDS011;2117;47.972;7.830;2023-04-24T04:43:22;3.33;;;1.27;;
4206;SDS011;2117;47.972;7.830;2023-04-24T04:45:49;8.07;;;1.30;;
4206;SDS011;2117;47.972;7.830;2023-04-24T04:48:16;2.13;;;1.23;;
4206;SDS011;2117;47.972;7.830;2023-04-24T04:50:43;4.20;;;1.40;;
4206;SDS011;2117;47.972;7.830;2023-04-24T04:53:09;2.07;;;1.30;;
4206;SDS011;2117;47.972;7.830;2023-04-24T04:55:35;3.03;;;1.37;;
4206;SDS011;2117;47.972;7.830;2023-04-24T04:58:01;2.20;;;1.20;;
4206;SDS011;2117;47.972;7.830;2023-04-24T05:00:27;4.00;;;1.23;;
4206;SDS011;2117;47.972;7.830;2023-04-24T05:02:53;3.97;;;1.50;;
4206;SDS011;2117;47.972;7.830;2023-04-24T05:05:19;2.40;;;1.30;;
4206;SDS011;2117;47.972;7.830;2023-04-24T05:07:45;6.13;;;1.30;;
4206;SDS011;2117;47.972;7.830;2023-04-24T05:10:10;2.80;;;1.20;;
4206;SDS011;2117;47.972;7.830;2023-04-24T05:12:36;3.00;;;1.60;;
4206;SDS011;2117;47.972;7.830;2023-04-24T05:15:02;3.20;;;1.20;;
4206;SDS011;2117;47.972;7.830;2023-04-24T05:17:28;3.20;;;1.80;;
4206;SDS011;2117;47.972;7.830;2023-04-24T05:19:54;14.83;;;1.80;;
4206;SDS011;2117;47.972;7.830;2023-04-24T05:22:20;3.10;;;1.57;;
4206;SDS011;2117;47.972;7.830;2023-04-24T05:24:46;4.50;;;1.90;;
4206;SDS011;2117;47.972;7.830;2023-04-24T05:27:12;4.87;;;1.80;;
4206;SDS011;2117;47.972;7.830;2023-04-24T05:29:37;2.50;;;1.50;;
4206;SDS011;2117;47.972;7.830;2023-04-24T05:32:03;2.83;;;2.03;;
4206;SDS011;2117;47.972;7.830;2023-04-24T05:34:28;3.43;;;1.80;;
4206;SDS011;2117;47.972;7.830;2023-04-24T05:36:54;4.63;;;1.63;;
4206;SDS011;2117;47.972;7.830;2023-04-24T05:39:20;5.70;;;2.37;;
4206;SDS011;2117;47.972;7.830;2023-04-24T05:41:45;3.03;;;2.30;;
4206;SDS011;2117;47.972;7.830;2023-04-24T05:44:11;3.70;;;3.37;;
4206;SDS011;2117;47.972;7.830;2023-04-24T05:46:36;3.10;;;2.00;;
4206;SDS011;2117;47.972;7.830;2023-04-24T05:49:02;3.27;;;1.90;;
4206;SDS011;2117;47.972;7.830;2023-04-24T05:51:28;3.70;;;1.90;;
4206;SDS011;2117;47.972;7.830;2023-04-24T05:53:53;2.90;;;2.10;;
4206;SDS011;2117;47.972;7.830;2023-04-24T05:56:19;10.30;;;2.40;;
4206;SDS011;2117;47.972;7.830;2023-04-24T05:58:45;14.30;;;2.53;;
4206;SDS011;2117;47.972;7.830;2023-04-24T06:01:12;3.60;;;2.37;;
4206;SDS011;2117;47.972;7.830;2023-04-24T06:03:39;3.93;;;2.73;;
4206;SDS011;2117;47.972;7.830;2023-04-24T06:06:06;3.90;;;2.63;;
4206;SDS011;2117;47.972;7.830;2023-04-24T06:08:32;4.30;;;2.10;;
4206;SDS011;2117;47.972;7.830;2023-04-24T06:10:58;3.50;;;2.43;;
4206;SDS011;2117;47.972;7.830;2023-04-24T06:13:23;5.90;;;2.27;;
4206;SDS011;2117;47.972;7.830;2023-04-24T06:15:49;4.37;;;2.30;;
4206;SDS011;2117;47.972;7.830;2023-04-24T06:18:15;4.60;;;2.33;;
4206;SDS011;2117;47.972;7.830;2023-04-24T06:20:40;2.97;;;2.23;;
4206;SDS011;2117;47.972;7.830;2023-04-24T06:23:06;4.77;;;2.00;;
4206;SDS011;2117;47.972;7.830;2023-04-24T06:25:32;4.70;;;2.53;;
4206;SDS011;2117;47.972;7.830;2023-04-24T06:27:57;3.70;;;2.43;;
4206;SDS011;2117;47.972;7.830;2023-04-24T06:30:23;3.03;;;2.20;;
4206;SDS011;2117;47.972;7.830;2023-04-24T06:32:48;5.40;;;2.47;;
4206;SDS011;2117;47.972;7.830;2023-04-24T06:35:14;3.90;;;2.70;;
4206;SDS011;2117;47.972;7.830;2023-04-24T06:37:41;6.17;;;2.80;;
4206;SDS011;2117;47.972;7.830;2023-04-24T06:40:07;3.40;;;2.47;;
4206;SDS011;2117;47.972;7.830;2023-04-24T06:42:33;3.13;;;2.23;;
4206;SDS011;2117;47.972;7.830;2023-04-24T06:44:59;3.53;;;1.80;;
4206;SDS011;2117;47.972;7.830;2023-04-24T06:47:25;3.17;;;2.60;;
4206;SDS011;2117;47.972;7.830;2023-04-24T06:49:51;4.93;;;2.57;;
4206;SDS011;2117;47.972;7.830;2023-04-24T06:52:17;3.80;;;2.37;;
4206;SDS011;2117;47.972;7.830;2023-04-24T06:54:43;4.63;;;2.30;;
4206;SDS011;2117;47.972;7.830;2023-04-24T06:57:09;3.33;;;2.63;;
4206;SDS011;2117;47.972;7.830;2023-04-24T06:59:35;4.33;;;2.83;;
4206;SDS011;2117;47.972;7.830;2023-04-24T07:02:01;4.47;;;2.40;;
4206;SDS011;2117;47.972;7.830;2023-04-24T07:04:27;3.63;;;2.00;;
4206;SDS011;2117;47.972;7.830;2023-04-24T07:06:53;3.03;;;2.27;;
4206;SDS011;2117;47.972;7.830;2023-04-24T07:09:22;5.90;;;3.07;;
4206;SDS011;2117;47.972;7.830;2023-04-24T07:11:50;2.80;;;2.10;;
4206;SDS011;2117;47.972;7.830;2023-04-24T07:14:16;4.17;;;2.00;;
4206;SDS011;2117;47.972;7.830;2023-04-24T07:16:42;4.80;;;1.87;;
4206;SDS011;2117;47.972;7.830;2023-04-24T07:19:08;2.80;;;1.93;;
4206;SDS011;2117;47.972;7.830;2023-04-24T07:21:34;3.20;;;1.57;;
4206;SDS011;2117;47.972;7.830;2023-04-24T07:24:00;3.60;;;1.70;;
4206;SDS011;2117;47.972;7.830;2023-04-24T07:26:26;3.50;;;1.60;;
4206;SDS011;2117;47.972;7.830;2023-04-24T07:28:53;3.33;;;1.70;;
4206;SDS011;2117;47.972;7.830;2023-04-24T07:31:18;2.50;;;1.80;;
4206;SDS011;2117;47.972;7.830;2023-04-24T07:33:44;2.43;;;1.70;;
4206;SDS011;2117;47.972;7.830;2023-04-24T07:36:11;6.23;;;1.80;;
4206;SDS011;2117;47.972;7.830;2023-04-24T07:38:41;2.37;;;1.70;;
4206;SDS011;2117;47.972;7.830;2023-04-24T07:41:07;4.90;;;1.73;;
4206;SDS011;2117;47.972;7.830;2023-04-24T07:43:32;3.70;;;1.57;;
4206;SDS011;2117;47.972;7.830;2023-04-24T07:45:58;4.13;;;2.00;;
4206;SDS011;2117;47.972;7.830;2023-04-24T07:48:24;6.40;;;1.90;;
4206;SDS011;2117;47.972;7.830;2023-04-24T07:50:51;3.20;;;1.73;;
4206;SDS011;2117;47.972;7.830;2023-04-24T07:53:17;2.13;;;1.33;;
4206;SDS011;2117;47.972;7.830;2023-04-24T07:55:42;5.80;;;1.90;;
4206;SDS011;2117;47.972;7.830;2023-04-24T07:58:08;4.83;;;1.90;;
4206;SDS011;2117;47.972;7.830;2023-04-24T08:00:34;7.83;;;2.00;;
4206;SDS011;2117;47.972;7.830;2023-04-24T08:03:00;2.43;;;1.63;;
4206;SDS011;2117;47.972;7.830;2023-04-24T08:05:25;2.97;;;1.93;;
4206;SDS011;2117;47.972;7.830;2023-04-24T08:07:53;3.20;;;2.13;;
4206;SDS011;2117;47.972;7.830;2023-04-24T08:10:19;3.33;;;1.80;;
4206;SDS011;2117;47.972;7.830;2023-04-24T08:12:46;3.33;;;2.10;;
4206;SDS011;2117;47.972;7.830;2023-04-24T08:15:12;2.80;;;1.70;;
4206;SDS011;2117;47.972;7.830;2023-04-24T08:17:37;4.20;;;2.37;;
4206;SDS011;2117;47.972;7.830;2023-04-24T08:20:03;2.50;;;1.67;;
4206;SDS011;2117;47.972;7.830;2023-04-24T08:22:30;7.63;;;2.73;;
4206;SDS011;2117;47.972;7.830;2023-04-24T08:24:55;3.77;;;2.20;;
4206;SDS011;2117;47.972;7.830;2023-04-24T08:27:22;3.73;;;2.20;;
4206;SDS011;2117;47.972;7.830;2023-04-24T08:29:52;3.77;;;2.23;;
4206;SDS011;2117;47.972;7.830;2023-04-24T08:32:18;4.93;;;2.50;;
4206;SDS011;2117;47.972;7.830;2023-04-24T08:34:44;3.53;;;2.50;;
4206;SDS011;2117;47.972;7.830;2023-04-24T08:37:10;4.63;;;2.27;;
4206;SDS011;2117;47.972;7.830;2023-04-24T08:39:36;6.33;;;2.60;;
4206;SDS011;2117;47.972;7.830;2023-04-24T08:42:02;6.83;;;2.57;;
4206;SDS011;2117;47.972;7.830;2023-04-24T08:44:32;4.60;;;1.97;;
4206;SDS011;2117;47.972;7.830;2023-04-24T08:46:59;6.73;;;2.20;;
4206;SDS011;2117;47.972;7.830;2023-04-24T08:49:25;2.20;;;2.00;;
4206;SDS011;2117;47.972;7.830;2023-04-24T08:51:53;6.77;;;2.20;;
4206;SDS011;2117;47.972;7.830;2023-04-24T08:54:18;3.50;;;2.40;;
4206;SDS011;2117;47.972;7.830;2023-04-24T08:56:45;2.30;;;1.60;;
4206;SDS011;2117;47.972;7.830;2023-04-24T08:59:13;3.70;;;1.93;;
4206;SDS011;2117;47.972;7.830;2023-04-24T09:01:40;3.00;;;1.53;;
4206;SDS011;2117;47.972;7.830;2023-04-24T09:04:07;3.20;;;1.93;;
4206;SDS011;2117;47.972;7.830;2023-04-24T09:06:37;2.00;;;1.20;;
4206;SDS011;2117;47.972;7.830;2023-04-24T09:09:04;7.37;;;2.20;;
4206;SDS011;2117;47.972;7.830;2023-04-24T09:11:30;3.03;;;1.80;;
4206;SDS011;2117;47.972;7.830;2023-04-24T09:13:57;5.07;;;1.67;;
4206;SDS011;2117;47.972;7.830;2023-04-24T09:16:23;5.13;;;1.83;;
4206;SDS011;2117;47.972;7.830;2023-04-24T09:18:50;2.73;;;1.47;;
4206;SDS011;2117;47.972;7.830;2023-04-24T09:21:16;2.17;;;1.20;;
4206;SDS011;2117;47.972;7.830;2023-04-24T09:23:42;2.70;;;1.30;;
4206;SDS011;2117;47.972;7.830;2023-04-24T09:26:08;2.03;;;1.10;;
4206;SDS011;2117;47.972;7.830;2023-04-24T09:28:36;3.63;;;1.30;;
4206;SDS011;2117;47.972;7.830;2023-04-24T09:31:11;5.10;;;1.83;;
4206;SDS011;2117;47.972;7.830;2023-04-24T09:33:39;5.33;;;1.30;;
4206;SDS011;2117;47.972;7.830;2023-04-24T09:36:04;2.07;;;1.30;;
4206;SDS011;2117;47.972;7.830;2023-04-24T09:38:40;3.03;;;1.43;;
4206;SDS011;2117;47.972;7.830;2023-04-24T09:41:07;6.13;;;1.80;;
4206;SDS011;2117;47.972;7.830;2023-04-24T09:43:33;2.47;;;1.10;;
4206;SDS011;2117;47.972;7.830;2023-04-24T09:46:04;4.90;;;1.63;;
4206;SDS011;2117;47.972;7.830;2023-04-24T09:48:32;2.37;;;1.50;;
4206;SDS011;2117;47.972;7.830;2023-04-24T09:50:59;5.20;;;1.57;;
4206;SDS011;2117;47.972;7.830;2023-04-24T09:53:27;3.50;;;1.20;;
4206;SDS011;2117;47.972;7.830;2023-04-24T09:55:53;2.37;;;1.30;;
4206;SDS011;2117;47.972;7.830;2023-04-24T09:58:28;5.73;;;1.47;;
4206;SDS011;2117;47.972;7.830;2023-04-24T10:00:55;1.93;;;1.10;;
4206;SDS011;2117;47.972;7.830;2023-04-24T10:03:23;4.10;;;1.17;;
4206;SDS011;2117;47.972;7.830;2023-04-24T10:05:51;3.57;;;1.10;;
4206;SDS011;2117;47.972;7.830;2023-04-24T10:08:17;7.37;;;1.50;;
4206;SDS011;2117;47.972;7.830;2023-04-24T10:10:44;1.50;;;0.73;;
4206;SDS011;2117;47.972;7.830;2023-04-24T10:13:11;1.97;;;0.97;;
4206;SDS011;2117;47.972;7.830;2023-04-24T10:15:38;2.70;;;0.90;;
4206;SDS011;2117;47.972;7.830;2023-04-24T10:18:05;3.90;;;1.17;;
4206;SDS011;2117;47.972;7.830;2023-04-24T10:20:32;3.73;;;1.47;;
4206;SDS011;2117;47.972;7.830;2023-04-24T10:22:59;7.13;;;1.23;;
4206;SDS011;2117;47.972;7.830;2023-04-24T10:25:26;2.47;;;1.30;;
4206;SDS011;2117;47.972;7.830;2023-04-24T10:27:53;5.63;;;1.60;;
4206;SDS011;2117;47.972;7.830;2023-04-24T10:30:24;1.93;;;1.10;;
4206;SDS011;2117;47.972;7.830;2023-04-24T10:32:50;2.20;;;1.20;;
4206;SDS011;2117;47.972;7.830;2023-04-24T10:35:16;1.70;;;0.90;;
4206;SDS011;2117;47.972;7.830;2023-04-24T10:37:48;2.00;;;1.30;;
4206;SDS011;2117;47.972;7.830;2023-04-24T10:40:18;3.60;;;1.10;;
4206;SDS011;2117;47.972;7.830;2023-04-24T10:42:51;2.87;;;1.40;;
4206;SDS011;2117;47.972;7.830;2023-04-24T10:45:20;5.63;;;1.20;;
4206;SDS011;2117;47.972;7.830;2023-04-24T10:47:50;2.13;;;1.10;;
4206;SDS011;2117;47.972;7.830;2023-04-24T10:50:17;2.77;;;1.53;;
4206;SDS011;2117;47.972;7.830;2023-04-24T10:52:43;3.33;;;1.33;;
4206;SDS011;2117;47.972;7.830;2023-04-24T10:55:10;4.00;;;1.17;;
4206;SDS011;2117;47.972;7.830;2023-04-24T10:57:38;4.20;;;1.30;;
4206;SDS011;2117;47.972;7.830;2023-04-24T11:02:46;3.03;;;1.10;;
4206;SDS011;2117;47.972;7.830;2023-04-24T11:05:18;2.30;;;1.30;;
4206;SDS011;2117;47.972;7.830;2023-04-24T11:10:39;3.30;;;1.37;;
4206;SDS011;2117;47.972;7.830;2023-04-24T11:13:06;3.47;;;1.50;;
4206;SDS011;2117;47.972;7.830;2023-04-24T11:15:32;3.07;;;1.03;;
4206;SDS011;2117;47.972;7.830;2023-04-24T11:17:57;11.07;;;2.10;;
4206;SDS011;2117;47.972;7.830;2023-04-24T11:20:23;1.97;;;1.17;;
4206;SDS011;2117;47.972;7.830;2023-04-24T11:22:52;3.77;;;1.67;;
4206;SDS011;2117;47.972;7.830;2023-04-24T11:25:22;4.47;;;1.33;;
4206;SDS011;2117;47.972;7.830;2023-04-24T11:27:48;5.60;;;1.93;;
4206;SDS011;2117;47.972;7.830;2023-04-24T11:30:19;2.30;;;1.70;;
4206;SDS011;2117;47.972;7.830;2023-04-24T11:32:48;3.20;;;1.60;;
4206;SDS011;2117;47.972;7.830;2023-04-24T11:35:16;3.27;;;1.50;;
4206;SDS011;2117;47.972;7.830;2023-04-24T11:37:44;5.03;;;1.77;;
4206;SDS011;2117;47.972;7.830;2023-04-24T11:40:12;4.20;;;1.70;;
4206;SDS011;2117;47.972;7.830;2023-04-24T11:42:43;2.13;;;1.40;;
4206;SDS011;2117;47.972;7.830;2023-04-24T11:45:10;7.90;;;1.80;;
4206;SDS011;2117;47.972;7.830;2023-04-24T11:47:46;2.23;;;1.33;;
4206;SDS011;2117;47.972;7.830;2023-04-24T11:50:12;5.53;;;1.53;;
4206;SDS011;2117;47.972;7.830;2023-04-24T11:52:43;3.43;;;1.83;;
4206;SDS011;2117;47.972;7.830;2023-04-24T11:57:40;6.33;;;1.50;;
4206;SDS011;2117;47.972;7.830;2023-04-24T12:00:14;4.50;;;1.67;;
4206;SDS011;2117;47.972;7.830;2023-04-24T12:02:41;3.50;;;1.40;;
4206;SDS011;2117;47.972;7.830;2023-04-24T12:05:07;3.10;;;1.30;;
4206;SDS011;2117;47.972;7.830;2023-04-24T12:07:36;2.60;;;1.20;;
4206;SDS011;2117;47.972;7.830;2023-04-24T12:10:09;3.30;;;1.50;;
4206;SDS011;2117;47.972;7.830;2023-04-24T12:12:35;3.20;;;1.50;;
4206;SDS011;2117;47.972;7.830;2023-04-24T12:15:01;3.23;;;2.17;;
4206;SDS011;2117;47.972;7.830;2023-04-24T12:17:31;2.37;;;1.40;;
4206;SDS011;2117;47.972;7.830;2023-04-24T12:20:02;3.20;;;1.40;;
4206;SDS011;2117;47.972;7.830;2023-04-24T12:25:21;4.43;;;1.87;;
4206;SDS011;2117;47.972;7.830;2023-04-24T12:28:07;6.80;;;1.80;;
4206;SDS011;2117;47.972;7.830;2023-04-24T12:30:47;5.23;;;1.63;;
4206;SDS011;2117;47.972;7.830;2023-04-24T12:33:19;15.13;;;3.20;;
4206;SDS011;2117;47.972;7.830;2023-04-24T12:35:47;5.63;;;1.60;;
4206;SDS011;2117;47.972;7.830;2023-04-24T12:38:16;3.30;;;2.23;;
4206;SDS011;2117;47.972;7.830;2023-04-24T12:40:46;3.00;;;1.70;;
4206;SDS011;2117;47.972;7.830;2023-04-24T12:45:44;5.10;;;2.40;;
4206;SDS011;2117;47.972;7.830;2023-04-24T12:48:11;3.03;;;2.00;;
4206;SDS011;2117;47.972;7.830;2023-04-24T12:50:38;5.80;;;1.80;;
4206;SDS011;2117;47.972;7.830;2023-04-24T12:53:04;2.77;;;2.00;;
4206;SDS011;2117;47.972;7.830;2023-04-24T12:55:34;2.40;;;1.60;;
4206;SDS011;2117;47.972;7.830;2023-04-24T12:57:59;3.10;;;1.70;;
4206;SDS011;2117;47.972;7.830;2023-04-24T13:00:25;3.97;;;1.97;;
4206;SDS011;2117;47.972;7.830;2023-04-24T13:02:51;5.50;;;1.90;;
4206;SDS011;2117;47.972;7.830;2023-04-24T13:05:16;2.73;;;1.80;;
4206;SDS011;2117;47.972;7.830;2023-04-24T13:07:42;2.33;;;1.60;;
4206;SDS011;2117;47.972;7.830;2023-04-24T13:10:08;2.10;;;1.30;;
4206;SDS011;2117;47.972;7.830;2023-04-24T13:12:34;8.37;;;2.10;;
4206;SDS011;2117;47.972;7.830;2023-04-24T13:15:00;4.20;;;1.40;;
4206;SDS011;2117;47.972;7.830;2023-04-24T13:17:25;3.27;;;1.53;;
4206;SDS011;2117;47.972;7.830;2023-04-24T13:19:51;3.00;;;1.60;;
4206;SDS011;2117;47.972;7.830;2023-04-24T13:22:18;2.70;;;1.83;;
4206;SDS011;2117;47.972;7.830;2023-04-24T13:24:45;3.07;;;1.80;;
4206;SDS011;2117;47.972;7.830;2023-04-24T13:27:10;2.80;;;1.40;;
4206;SDS011;2117;47.972;7.830;2023-04-24T13:29:36;2.20;;;1.47;;
4206;SDS011;2117;47.972;7.830;2023-04-24T13:32:02;4.10;;;1.90;;
4206;SDS011;2117;47.972;7.830;2023-04-24T13:34:28;4.20;;;1.97;;
4206;SDS011;2117;47.972;7.830;2023-04-24T13:36:55;2.30;;;1.60;;
4206;SDS011;2117;47.972;7.830;2023-04-24T13:39:22;6.33;;;1.70;;
4206;SDS011;2117;47.972;7.830;2023-04-24T13:41:48;3.60;;;1.60;;
4206;SDS011;2117;47.972;7.830;2023-04-24T13:44:14;3.27;;;1.50;;
4206;SDS011;2117;47.972;7.830;2023-04-24T13:46:41;5.10;;;2.10;;
4206;SDS011;2117;47.972;7.830;2023-04-24T13:49:08;6.10;;;1.90;;
4206;SDS011;2117;47.972;7.830;2023-04-24T13:51:34;3.07;;;2.00;;
4206;SDS011;2117;47.972;7.830;2023-04-24T13:53:59;2.77;;;1.60;;
4206;SDS011;2117;47.972;7.830;2023-04-24T13:56:25;3.07;;;2.13;;
4206;SDS011;2117;47.972;7.830;2023-04-24T13:58:51;10.30;;;1.87;;
4206;SDS011;2117;47.972;7.830;2023-04-24T14:01:17;3.90;;;2.17;;
4206;SDS011;2117;47.972;7.830;2023-04-24T14:03:43;2.93;;;1.87;;
4206;SDS011;2117;47.972;7.830;2023-04-24T14:06:09;4.87;;;2.10;;
4206;SDS011;2117;47.972;7.830;2023-04-24T14:08:34;2.90;;;1.63;;
4206;SDS011;2117;47.972;7.830;2023-04-24T14:11:00;3.87;;;1.87;;
4206;SDS011;2117;47.972;7.830;2023-04-24T14:13:25;3.93;;;1.73;;
4206;SDS011;2117;47.972;7.830;2023-04-24T14:15:52;3.10;;;1.60;;
4206;SDS011;2117;47.972;7.830;2023-04-24T14:18:18;4.17;;;2.13;;
4206;SDS011;2117;47.972;7.830;2023-04-24T14:20:44;5.57;;;2.27;;
4206;SDS011;2117;47.972;7.830;2023-04-24T14:23:10;4.30;;;2.27;;
4206;SDS011;2117;47.972;7.830;2023-04-24T14:25:35;2.27;;;1.60;;
4206;SDS011;2117;47.972;7.830;2023-04-24T14:28:01;3.40;;;1.23;;
4206;SDS011;2117;47.972;7.830;2023-04-24T14:30:26;2.73;;;1.57;;
4206;SDS011;2117;47.972;7.830;2023-04-24T14:32:52;2.67;;;1.53;;
4206;SDS011;2117;47.972;7.830;2023-04-24T14:35:18;2.50;;;1.70;;
4206;SDS011;2117;47.972;7.830;2023-04-24T14:37:44;3.33;;;2.20;;
4206;SDS011;2117;47.972;7.830;2023-04-24T14:40:09;2.03;;;1.60;;
4206;SDS011;2117;47.972;7.830;2023-04-24T14:42:35;3.50;;;1.93;;
4206;SDS011;2117;47.972;7.830;2023-04-24T14:45:01;3.30;;;1.60;;
4206;SDS011;2117;47.972;7.830;2023-04-24T14:47:27;3.50;;;1.60;;
4206;SDS011;2117;47.972;7.830;2023-04-24T14:49:54;4.07;;;2.17;;
4206;SDS011;2117;47.972;7.830;2023-04-24T14:52:19;4.90;;;2.70;;
4206;SDS011;2117;47.972;7.830;2023-04-24T14:54:45;4.60;;;2.37;;
4206;SDS011;2117;47.972;7.830;2023-04-24T14:57:10;3.13;;;2.13;;
4206;SDS011;2117;47.972;7.830;2023-04-24T14:59:36;4.23;;;1.53;;
4206;SDS011;2117;47.972;7.830;2023-04-24T15:02:01;3.30;;;2.20;;
4206;SDS011;2117;47.972;7.830;2023-04-24T15:04:27;3.20;;;2.20;;
4206;SDS011;2117;47.972;7.830;2023-04-24T15:06:54;6.50;;;1.90;;
4206;SDS011;2117;47.972;7.830;2023-04-24T15:09:20;4.80;;;2.33;;
4206;SDS011;2117;47.972;7.830;2023-04-24T15:11:47;4.90;;;2.50;;
4206;SDS011;2117;47.972;7.830;2023-04-24T15:14:14;5.37;;;2.40;;
4206;SDS011;2117;47.972;7.830;2023-04-24T15:16:39;4.63;;;2.40;;
4206;SDS011;2117;47.972;7.830;2023-04-24T15:19:05;4.90;;;2.43;;
4206;SDS011;2117;47.972;7.830;2023-04-24T15:21:30;8.00;;;2.20;;
4206;SDS011;2117;47.972;7.830;2023-04-24T15:23:57;3.10;;;2.00;;